sensor_id;sensor_type;location;lat;lon;timestamp;P1;durP1;ratioP1;P2;durP2;ratioP2
26191;SDS011;13935;55.672;37.764;2022-08-19T00:00:23;13.43;;;6.38;;
26191;SDS011;13935;55.672;37.764;2022-08-19T00:01:27;9.70;;;5.97;;
26191;SDS011;13935;55.672;37.764;2022-08-19T00:02:31;11.55;;;6.30;;
26191;SDS011;13935;55.672;37.764;2022-08-19T00:03:34;12.10;;;6.50;;
26191;SDS011;13935;55.672;37.764;2022-08-19T00:04:36;9.38;;;6.43;;
26191;SDS011;13935;55.672;37.764;2022-08-19T00:05:49;12.40;;;6.13;;
26191;SDS011;13935;55.672;37.764;2022-08-19T00:06:51;12.73;;;6.65;;
26191;SDS011;13935;55.672;37.764;2022-08-19T00:07:54;9.50;;;6.00;;
26191;SDS011;13935;55.672;37.764;2022-08-19T00:08:58;11.50;;;5.85;;
26191;SDS011;13935;55.672;37.764;2022-08-19T00:10:02;11.75;;;6.20;;
26191;SDS011;13935;55.672;37.764;2022-08-19T00:11:06;14.75;;;6.30;;
26191;SDS011;13935;55.672;37.764;2022-08-19T00:12:19;11.32;;;5.65;;
26191;SDS011;13935;55.672;37.764;2022-08-19T00:13:21;7.80;;;5.90;;
26191;SDS011;13935;55.672;37.764;2022-08-19T00:14:24;10.35;;;5.57;;
26191;SDS011;13935;55.672;37.764;2022-08-19T00:15:27;12.52;;;5.97;;
26191;SDS011;13935;55.672;37.764;2022-08-19T00:16:30;14.38;;;6.18;;
26191;SDS011;13935;55.672;37.764;2022-08-19T00:17:32;9.35;;;5.82;;
26191;SDS011;13935;55.672;37.764;2022-08-19T00:18:35;9.68;;;5.75;;
26191;SDS011;13935;55.672;37.764;2022-08-19T00:19:38;9.20;;;5.85;;
26191;SDS011;13935;55.672;37.764;2022-08-19T00:20:40;13.55;;;5.65;;
26191;SDS011;13935;55.672;37.764;2022-08-19T00:21:43;14.50;;;6.03;;
26191;SDS011;13935;55.672;37.764;2022-08-19T00:22:48;11.68;;;6.60;;
26191;SDS011;13935;55.672;37.764;2022-08-19T00:23:51;13.75;;;6.03;;
26191;SDS011;13935;55.672;37.764;2022-08-19T00:24:54;10.15;;;6.50;;
26191;SDS011;13935;55.672;37.764;2022-08-19T00:25:57;10.82;;;5.80;;
26191;SDS011;13935;55.672;37.764;2022-08-19T00:27:00;11.82;;;6.25;;
26191;SDS011;13935;55.672;37.764;2022-08-19T00:28:26;11.63;;;6.30;;
26191;SDS011;13935;55.672;37.764;2022-08-19T00:29:30;11.18;;;6.10;;
26191;SDS011;13935;55.672;37.764;2022-08-19T00:30:35;12.77;;;6.00;;
26191;SDS011;13935;55.672;37.764;2022-08-19T00:31:38;13.73;;;6.40;;
26191;SDS011;13935;55.672;37.764;2022-08-19T00:32:40;10.85;;;6.00;;
26191;SDS011;13935;55.672;37.764;2022-08-19T00:33:47;9.50;;;6.10;;
26191;SDS011;13935;55.672;37.764;2022-08-19T00:34:59;11.98;;;5.95;;
26191;SDS011;13935;55.672;37.764;2022-08-19T00:36:04;20.48;;;6.82;;
26191;SDS011;13935;55.672;37.764;2022-08-19T00:37:09;10.85;;;5.68;;
26191;SDS011;13935;55.672;37.764;2022-08-19T00:38:11;11.25;;;6.22;;
26191;SDS011;13935;55.672;37.764;2022-08-19T00:39:14;9.35;;;5.97;;
26191;SDS011;13935;55.672;37.764;2022-08-19T00:40:17;8.73;;;6.35;;
26191;SDS011;13935;55.672;37.764;2022-08-19T00:41:21;12.25;;;6.35;;
26191;SDS011;13935;55.672;37.764;2022-08-19T00:42:25;14.95;;;6.18;;
26191;SDS011;13935;55.672;37.764;2022-08-19T00:43:30;9.10;;;6.28;;
26191;SDS011;13935;55.672;37.764;2022-08-19T00:44:35;13.98;;;6.30;;
26191;SDS011;13935;55.672;37.764;2022-08-19T00:45:38;11.43;;;6.65;;
26191;SDS011;13935;55.672;37.764;2022-08-19T00:46:43;8.48;;;6.30;;
26191;SDS011;13935;55.672;37.764;2022-08-19T00:47:58;12.32;;;6.22;;
26191;SDS011;13935;55.672;37.764;2022-08-19T00:49:06;9.15;;;6.72;;
26191;SDS011;13935;55.672;37.764;2022-08-19T00:50:17;12.50;;;6.95;;
26191;SDS011;13935;55.672;37.764;2022-08-19T00:51:21;12.13;;;6.25;;
26191;SDS011;13935;55.672;37.764;2022-08-19T00:52:32;14.05;;;6.45;;
26191;SDS011;13935;55.672;37.764;2022-08-19T00:53:37;11.43;;;6.07;;
26191;SDS011;13935;55.672;37.764;2022-08-19T00:54:40;12.80;;;6.43;;
26191;SDS011;13935;55.672;37.764;2022-08-19T00:55:45;11.52;;;6.30;;
26191;SDS011;13935;55.672;37.764;2022-08-19T00:56:52;12.15;;;6.80;;
26191;SDS011;13935;55.672;37.764;2022-08-19T00:57:58;11.60;;;6.25;;
26191;SDS011;13935;55.672;37.764;2022-08-19T00:59:04;11.23;;;6.18;;
26191;SDS011;13935;55.672;37.764;2022-08-19T01:00:13;10.93;;;6.80;;
26191;SDS011;13935;55.672;37.764;2022-08-19T01:01:18;9.68;;;6.32;;
26191;SDS011;13935;55.672;37.764;2022-08-19T01:02:20;13.75;;;6.47;;
26191;SDS011;13935;55.672;37.764;2022-08-19T01:03:23;11.35;;;6.50;;
26191;SDS011;13935;55.672;37.764;2022-08-19T01:04:26;11.88;;;6.18;;
26191;SDS011;13935;55.672;37.764;2022-08-19T01:05:29;11.32;;;6.75;;
26191;SDS011;13935;55.672;37.764;2022-08-19T01:06:31;11.50;;;6.95;;
26191;SDS011;13935;55.672;37.764;2022-08-19T01:07:35;16.88;;;6.28;;
26191;SDS011;13935;55.672;37.764;2022-08-19T01:08:42;11.70;;;6.20;;
26191;SDS011;13935;55.672;37.764;2022-08-19T01:09:44;14.50;;;6.40;;
26191;SDS011;13935;55.672;37.764;2022-08-19T01:11:01;11.88;;;6.28;;
26191;SDS011;13935;55.672;37.764;2022-08-19T01:12:10;17.83;;;6.30;;
26191;SDS011;13935;55.672;37.764;2022-08-19T01:13:16;11.63;;;5.90;;
26191;SDS011;13935;55.672;37.764;2022-08-19T01:14:20;12.27;;;5.78;;
26191;SDS011;13935;55.672;37.764;2022-08-19T01:15:25;11.10;;;6.18;;
26191;SDS011;13935;55.672;37.764;2022-08-19T01:16:31;12.23;;;6.75;;
26191;SDS011;13935;55.672;37.764;2022-08-19T01:17:35;12.80;;;5.82;;
26191;SDS011;13935;55.672;37.764;2022-08-19T01:18:43;15.48;;;5.90;;
26191;SDS011;13935;55.672;37.764;2022-08-19T01:19:48;13.70;;;6.32;;
26191;SDS011;13935;55.672;37.764;2022-08-19T01:20:50;11.18;;;6.13;;
26191;SDS011;13935;55.672;37.764;2022-08-19T01:22:39;13.38;;;6.75;;
26191;SDS011;13935;55.672;37.764;2022-08-19T01:23:51;15.73;;;7.22;;
26191;SDS011;13935;55.672;37.764;2022-08-19T01:24:54;12.68;;;6.78;;
26191;SDS011;13935;55.672;37.764;2022-08-19T01:25:57;12.40;;;6.60;;
26191;SDS011;13935;55.672;37.764;2022-08-19T01:26:59;10.30;;;6.40;;
26191;SDS011;13935;55.672;37.764;2022-08-19T01:28:15;12.57;;;7.03;;
26191;SDS011;13935;55.672;37.764;2022-08-19T01:29:38;11.65;;;7.07;;
26191;SDS011;13935;55.672;37.764;2022-08-19T01:30:44;15.32;;;7.20;;
26191;SDS011;13935;55.672;37.764;2022-08-19T01:31:51;9.95;;;6.80;;
26191;SDS011;13935;55.672;37.764;2022-08-19T01:32:56;16.42;;;7.03;;
26191;SDS011;13935;55.672;37.764;2022-08-19T01:34:05;18.95;;;7.32;;
26191;SDS011;13935;55.672;37.764;2022-08-19T01:35:08;10.73;;;7.40;;
26191;SDS011;13935;55.672;37.764;2022-08-19T01:36:15;13.00;;;7.25;;
26191;SDS011;13935;55.672;37.764;2022-08-19T01:37:24;12.77;;;6.65;;
26191;SDS011;13935;55.672;37.764;2022-08-19T01:38:27;13.88;;;7.40;;
26191;SDS011;13935;55.672;37.764;2022-08-19T01:39:33;11.07;;;7.13;;
26191;SDS011;13935;55.672;37.764;2022-08-19T01:40:37;12.80;;;7.30;;
26191;SDS011;13935;55.672;37.764;2022-08-19T01:41:41;19.27;;;7.47;;
26191;SDS011;13935;55.672;37.764;2022-08-19T01:42:44;12.10;;;7.15;;
26191;SDS011;13935;55.672;37.764;2022-08-19T01:43:47;13.60;;;8.02;;
26191;SDS011;13935;55.672;37.764;2022-08-19T01:45:22;17.45;;;7.97;;
26191;SDS011;13935;55.672;37.764;2022-08-19T01:46:29;17.10;;;7.88;;
26191;SDS011;13935;55.672;37.764;2022-08-19T01:48:00;15.02;;;7.35;;
26191;SDS011;13935;55.672;37.764;2022-08-19T01:49:13;13.98;;;7.85;;
26191;SDS011;13935;55.672;37.764;2022-08-19T01:50:35;15.05;;;6.90;;
26191;SDS011;13935;55.672;37.764;2022-08-19T01:51:38;12.40;;;7.25;;
26191;SDS011;13935;55.672;37.764;2022-08-19T01:52:41;11.77;;;7.43;;
26191;SDS011;13935;55.672;37.764;2022-08-19T01:55:41;14.35;;;7.43;;
26191;SDS011;13935;55.672;37.764;2022-08-19T01:56:48;16.88;;;7.63;;
26191;SDS011;13935;55.672;37.764;2022-08-19T01:57:54;14.73;;;7.82;;
26191;SDS011;13935;55.672;37.764;2022-08-19T01:59:02;12.57;;;7.05;;
26191;SDS011;13935;55.672;37.764;2022-08-19T02:00:11;15.52;;;7.60;;
26191;SDS011;13935;55.672;37.764;2022-08-19T02:01:18;17.02;;;7.20;;
26191;SDS011;13935;55.672;37.764;2022-08-19T02:03:55;15.40;;;7.28;;
26191;SDS011;13935;55.672;37.764;2022-08-19T02:05:00;13.27;;;7.90;;
26191;SDS011;13935;55.672;37.764;2022-08-19T02:06:03;11.93;;;7.18;;
26191;SDS011;13935;55.672;37.764;2022-08-19T02:07:43;13.82;;;7.60;;
26191;SDS011;13935;55.672;37.764;2022-08-19T02:08:47;22.23;;;8.10;;
26191;SDS011;13935;55.672;37.764;2022-08-19T02:10:44;17.27;;;7.63;;
26191;SDS011;13935;55.672;37.764;2022-08-19T02:22:27;14.63;;;7.57;;
26191;SDS011;13935;55.672;37.764;2022-08-19T02:28:02;14.45;;;6.57;;
26191;SDS011;13935;55.672;37.764;2022-08-19T02:29:48;11.75;;;7.40;;
26191;SDS011;13935;55.672;37.764;2022-08-19T02:30:52;11.07;;;6.63;;
26191;SDS011;13935;55.672;37.764;2022-08-19T02:31:55;18.85;;;7.28;;
26191;SDS011;13935;55.672;37.764;2022-08-19T02:32:58;17.33;;;7.63;;
26191;SDS011;13935;55.672;37.764;2022-08-19T02:34:02;13.27;;;7.80;;
26191;SDS011;13935;55.672;37.764;2022-08-19T02:38:48;18.67;;;7.68;;
26191;SDS011;13935;55.672;37.764;2022-08-19T03:03:42;17.10;;;7.68;;
26191;SDS011;13935;55.672;37.764;2022-08-19T03:07:33;14.93;;;7.65;;
26191;SDS011;13935;55.672;37.764;2022-08-19T03:13:32;14.70;;;8.60;;
26191;SDS011;13935;55.672;37.764;2022-08-19T03:15:09;20.10;;;8.48;;
26191;SDS011;13935;55.672;37.764;2022-08-19T03:16:23;20.17;;;7.90;;
26191;SDS011;13935;55.672;37.764;2022-08-19T03:18:04;15.23;;;8.75;;
26191;SDS011;13935;55.672;37.764;2022-08-19T03:19:13;14.30;;;8.35;;
26191;SDS011;13935;55.672;37.764;2022-08-19T03:20:21;16.42;;;8.48;;
26191;SDS011;13935;55.672;37.764;2022-08-19T03:21:33;14.68;;;7.70;;
26191;SDS011;13935;55.672;37.764;2022-08-19T03:22:49;13.43;;;8.60;;
26191;SDS011;13935;55.672;37.764;2022-08-19T03:23:55;15.35;;;8.30;;
26191;SDS011;13935;55.672;37.764;2022-08-19T03:25:02;16.92;;;8.43;;
26191;SDS011;13935;55.672;37.764;2022-08-19T03:26:07;16.20;;;8.27;;
26191;SDS011;13935;55.672;37.764;2022-08-19T03:27:29;15.40;;;8.45;;
26191;SDS011;13935;55.672;37.764;2022-08-19T03:28:44;12.15;;;7.70;;
26191;SDS011;13935;55.672;37.764;2022-08-19T03:30:05;14.45;;;8.35;;
26191;SDS011;13935;55.672;37.764;2022-08-19T03:31:25;15.35;;;8.32;;
26191;SDS011;13935;55.672;37.764;2022-08-19T03:32:49;15.25;;;8.68;;
26191;SDS011;13935;55.672;37.764;2022-08-19T03:33:59;18.23;;;8.82;;
26191;SDS011;13935;55.672;37.764;2022-08-19T03:35:01;15.95;;;8.18;;
26191;SDS011;13935;55.672;37.764;2022-08-19T03:37:29;13.75;;;8.80;;
26191;SDS011;13935;55.672;37.764;2022-08-19T03:38:32;17.65;;;9.65;;
26191;SDS011;13935;55.672;37.764;2022-08-19T03:39:39;17.58;;;8.68;;
26191;SDS011;13935;55.672;37.764;2022-08-19T03:42:05;14.68;;;8.48;;
26191;SDS011;13935;55.672;37.764;2022-08-19T03:43:49;15.00;;;9.10;;
26191;SDS011;13935;55.672;37.764;2022-08-19T03:44:59;12.52;;;8.43;;
26191;SDS011;13935;55.672;37.764;2022-08-19T03:46:07;15.90;;;9.32;;
26191;SDS011;13935;55.672;37.764;2022-08-19T03:47:14;18.88;;;8.60;;
26191;SDS011;13935;55.672;37.764;2022-08-19T03:48:18;17.40;;;8.05;;
26191;SDS011;13935;55.672;37.764;2022-08-19T03:49:21;15.73;;;8.80;;
26191;SDS011;13935;55.672;37.764;2022-08-19T03:50:33;15.50;;;8.30;;
26191;SDS011;13935;55.672;37.764;2022-08-19T03:51:45;12.50;;;8.50;;
26191;SDS011;13935;55.672;37.764;2022-08-19T03:52:49;12.57;;;8.30;;
26191;SDS011;13935;55.672;37.764;2022-08-19T03:53:54;20.17;;;8.88;;
26191;SDS011;13935;55.672;37.764;2022-08-19T03:54:57;16.63;;;8.60;;
26191;SDS011;13935;55.672;37.764;2022-08-19T03:56:02;13.48;;;8.35;;
26191;SDS011;13935;55.672;37.764;2022-08-19T03:57:06;16.88;;;8.45;;
26191;SDS011;13935;55.672;37.764;2022-08-19T03:58:32;14.38;;;7.95;;
26191;SDS011;13935;55.672;37.764;2022-08-19T03:59:36;15.43;;;8.57;;
26191;SDS011;13935;55.672;37.764;2022-08-19T04:00:41;14.50;;;7.95;;
26191;SDS011;13935;55.672;37.764;2022-08-19T04:01:44;15.13;;;8.25;;
26191;SDS011;13935;55.672;37.764;2022-08-19T04:02:48;15.45;;;8.48;;
26191;SDS011;13935;55.672;37.764;2022-08-19T04:04:01;14.43;;;8.73;;
26191;SDS011;13935;55.672;37.764;2022-08-19T04:05:06;17.92;;;8.35;;
26191;SDS011;13935;55.672;37.764;2022-08-19T04:07:15;16.20;;;8.38;;
26191;SDS011;13935;55.672;37.764;2022-08-19T04:08:17;14.65;;;8.55;;
26191;SDS011;13935;55.672;37.764;2022-08-19T04:09:22;14.32;;;8.80;;
26191;SDS011;13935;55.672;37.764;2022-08-19T04:10:25;18.83;;;8.90;;
26191;SDS011;13935;55.672;37.764;2022-08-19T04:11:36;11.75;;;7.63;;
26191;SDS011;13935;55.672;37.764;2022-08-19T04:12:45;18.75;;;8.57;;
26191;SDS011;13935;55.672;37.764;2022-08-19T04:13:51;16.20;;;8.70;;
26191;SDS011;13935;55.672;37.764;2022-08-19T04:14:54;14.73;;;8.85;;
26191;SDS011;13935;55.672;37.764;2022-08-19T04:15:56;14.75;;;8.82;;
26191;SDS011;13935;55.672;37.764;2022-08-19T04:16:59;17.88;;;9.23;;
26191;SDS011;13935;55.672;37.764;2022-08-19T04:18:03;11.82;;;8.80;;
26191;SDS011;13935;55.672;37.764;2022-08-19T04:19:10;15.25;;;8.48;;
26191;SDS011;13935;55.672;37.764;2022-08-19T04:20:16;18.85;;;9.05;;
26191;SDS011;13935;55.672;37.764;2022-08-19T04:21:22;19.10;;;9.70;;
26191;SDS011;13935;55.672;37.764;2022-08-19T04:22:26;16.58;;;9.23;;
26191;SDS011;13935;55.672;37.764;2022-08-19T04:23:29;13.90;;;8.82;;
26191;SDS011;13935;55.672;37.764;2022-08-19T04:24:33;16.67;;;9.63;;
26191;SDS011;13935;55.672;37.764;2022-08-19T04:25:45;16.27;;;9.43;;
26191;SDS011;13935;55.672;37.764;2022-08-19T04:26:48;15.73;;;9.35;;
26191;SDS011;13935;55.672;37.764;2022-08-19T04:27:50;15.23;;;9.88;;
26191;SDS011;13935;55.672;37.764;2022-08-19T04:28:56;16.50;;;9.25;;
26191;SDS011;13935;55.672;37.764;2022-08-19T04:29:58;17.48;;;9.15;;
26191;SDS011;13935;55.672;37.764;2022-08-19T04:31:00;20.20;;;9.18;;
26191;SDS011;13935;55.672;37.764;2022-08-19T04:32:02;15.98;;;9.07;;
26191;SDS011;13935;55.672;37.764;2022-08-19T04:33:10;15.60;;;9.68;;
26191;SDS011;13935;55.672;37.764;2022-08-19T04:34:15;16.45;;;9.32;;
26191;SDS011;13935;55.672;37.764;2022-08-19T04:35:18;17.00;;;9.32;;
26191;SDS011;13935;55.672;37.764;2022-08-19T04:36:27;16.27;;;9.85;;
26191;SDS011;13935;55.672;37.764;2022-08-19T04:37:31;16.10;;;9.35;;
26191;SDS011;13935;55.672;37.764;2022-08-19T04:38:36;18.15;;;9.75;;
26191;SDS011;13935;55.672;37.764;2022-08-19T04:39:38;15.88;;;9.80;;
26191;SDS011;13935;55.672;37.764;2022-08-19T04:41:03;15.10;;;9.90;;
26191;SDS011;13935;55.672;37.764;2022-08-19T04:42:24;17.95;;;10.20;;
26191;SDS011;13935;55.672;37.764;2022-08-19T04:43:41;18.85;;;9.13;;
26191;SDS011;13935;55.672;37.764;2022-08-19T04:44:46;14.30;;;8.95;;
26191;SDS011;13935;55.672;37.764;2022-08-19T04:45:48;13.05;;;9.40;;
26191;SDS011;13935;55.672;37.764;2022-08-19T04:46:56;15.20;;;9.48;;
26191;SDS011;13935;55.672;37.764;2022-08-19T04:47:59;16.48;;;9.52;;
26191;SDS011;13935;55.672;37.764;2022-08-19T04:49:23;14.18;;;9.00;;
26191;SDS011;13935;55.672;37.764;2022-08-19T04:50:27;18.65;;;9.07;;
26191;SDS011;13935;55.672;37.764;2022-08-19T04:51:29;16.65;;;8.85;;
26191;SDS011;13935;55.672;37.764;2022-08-19T04:52:35;18.58;;;9.82;;
26191;SDS011;13935;55.672;37.764;2022-08-19T04:53:37;15.18;;;9.25;;
26191;SDS011;13935;55.672;37.764;2022-08-19T04:54:43;14.48;;;9.07;;
26191;SDS011;13935;55.672;37.764;2022-08-19T04:55:47;14.73;;;9.00;;
26191;SDS011;13935;55.672;37.764;2022-08-19T04:56:49;12.48;;;8.70;;
26191;SDS011;13935;55.672;37.764;2022-08-19T04:57:54;14.07;;;8.75;;
26191;SDS011;13935;55.672;37.764;2022-08-19T04:58:56;18.23;;;9.63;;
26191;SDS011;13935;55.672;37.764;2022-08-19T04:59:59;14.05;;;9.00;;
26191;SDS011;13935;55.672;37.764;2022-08-19T05:01:01;13.65;;;9.07;;
26191;SDS011;13935;55.672;37.764;2022-08-19T05:02:07;16.50;;;9.48;;
26191;SDS011;13935;55.672;37.764;2022-08-19T05:03:13;14.75;;;9.30;;
26191;SDS011;13935;55.672;37.764;2022-08-19T05:04:21;15.20;;;9.48;;
26191;SDS011;13935;55.672;37.764;2022-08-19T05:05:23;15.02;;;9.40;;
26191;SDS011;13935;55.672;37.764;2022-08-19T05:06:25;13.70;;;9.15;;
26191;SDS011;13935;55.672;37.764;2022-08-19T05:07:28;15.88;;;9.73;;
26191;SDS011;13935;55.672;37.764;2022-08-19T05:08:33;17.83;;;9.63;;
26191;SDS011;13935;55.672;37.764;2022-08-19T05:09:37;15.93;;;9.77;;
26191;SDS011;13935;55.672;37.764;2022-08-19T05:10:59;16.65;;;9.40;;
26191;SDS011;13935;55.672;37.764;2022-08-19T05:12:01;14.05;;;9.55;;
26191;SDS011;13935;55.672;37.764;2022-08-19T05:13:04;14.95;;;9.27;;
26191;SDS011;13935;55.672;37.764;2022-08-19T05:14:08;14.02;;;9.52;;
26191;SDS011;13935;55.672;37.764;2022-08-19T05:15:11;18.13;;;9.48;;
26191;SDS011;13935;55.672;37.764;2022-08-19T05:16:14;16.38;;;10.23;;
26191;SDS011;13935;55.672;37.764;2022-08-19T05:17:19;18.83;;;9.90;;
26191;SDS011;13935;55.672;37.764;2022-08-19T05:18:31;15.07;;;9.68;;
26191;SDS011;13935;55.672;37.764;2022-08-19T05:19:54;17.08;;;9.32;;
26191;SDS011;13935;55.672;37.764;2022-08-19T05:21:17;17.92;;;10.00;;
26191;SDS011;13935;55.672;37.764;2022-08-19T05:22:39;17.42;;;10.07;;
26191;SDS011;13935;55.672;37.764;2022-08-19T05:23:43;17.83;;;9.23;;
26191;SDS011;13935;55.672;37.764;2022-08-19T05:24:46;15.95;;;9.85;;
26191;SDS011;13935;55.672;37.764;2022-08-19T05:26:08;19.20;;;9.75;;
26191;SDS011;13935;55.672;37.764;2022-08-19T05:27:12;14.13;;;8.95;;
26191;SDS011;13935;55.672;37.764;2022-08-19T05:28:15;16.15;;;9.20;;
26191;SDS011;13935;55.672;37.764;2022-08-19T05:29:19;16.80;;;9.68;;
26191;SDS011;13935;55.672;37.764;2022-08-19T05:30:36;21.00;;;10.02;;
26191;SDS011;13935;55.672;37.764;2022-08-19T05:31:48;15.00;;;9.52;;
26191;SDS011;13935;55.672;37.764;2022-08-19T05:32:51;19.77;;;9.43;;
26191;SDS011;13935;55.672;37.764;2022-08-19T05:34:00;15.88;;;9.68;;
26191;SDS011;13935;55.672;37.764;2022-08-19T05:35:18;14.88;;;9.25;;
26191;SDS011;13935;55.672;37.764;2022-08-19T05:36:20;12.13;;;9.05;;
26191;SDS011;13935;55.672;37.764;2022-08-19T05:37:23;12.68;;;8.88;;
26191;SDS011;13935;55.672;37.764;2022-08-19T05:38:28;15.05;;;8.75;;
26191;SDS011;13935;55.672;37.764;2022-08-19T05:39:33;16.10;;;9.00;;
26191;SDS011;13935;55.672;37.764;2022-08-19T05:40:38;14.50;;;8.20;;
26191;SDS011;13935;55.672;37.764;2022-08-19T05:41:43;15.75;;;8.90;;
26191;SDS011;13935;55.672;37.764;2022-08-19T05:42:55;12.23;;;8.48;;
26191;SDS011;13935;55.672;37.764;2022-08-19T05:43:57;17.30;;;9.40;;
26191;SDS011;13935;55.672;37.764;2022-08-19T05:45:02;17.83;;;9.00;;
26191;SDS011;13935;55.672;37.764;2022-08-19T05:46:06;15.77;;;8.25;;
26191;SDS011;13935;55.672;37.764;2022-08-19T05:47:11;13.32;;;8.52;;
26191;SDS011;13935;55.672;37.764;2022-08-19T05:48:14;13.73;;;8.30;;
26191;SDS011;13935;55.672;37.764;2022-08-19T05:49:22;15.57;;;8.70;;
26191;SDS011;13935;55.672;37.764;2022-08-19T05:50:24;17.80;;;8.68;;
26191;SDS011;13935;55.672;37.764;2022-08-19T05:51:30;14.45;;;8.60;;
26191;SDS011;13935;55.672;37.764;2022-08-19T05:52:33;15.88;;;7.85;;
26191;SDS011;13935;55.672;37.764;2022-08-19T05:53:37;12.18;;;7.80;;
26191;SDS011;13935;55.672;37.764;2022-08-19T05:54:40;13.43;;;8.45;;
26191;SDS011;13935;55.672;37.764;2022-08-19T05:55:45;17.08;;;8.32;;
26191;SDS011;13935;55.672;37.764;2022-08-19T05:56:47;13.95;;;8.68;;
26191;SDS011;13935;55.672;37.764;2022-08-19T05:57:49;13.23;;;8.18;;
26191;SDS011;13935;55.672;37.764;2022-08-19T05:58:52;15.27;;;8.10;;
26191;SDS011;13935;55.672;37.764;2022-08-19T05:59:59;13.35;;;7.82;;
26191;SDS011;13935;55.672;37.764;2022-08-19T06:01:13;14.70;;;7.93;;
26191;SDS011;13935;55.672;37.764;2022-08-19T06:02:18;18.55;;;8.32;;
26191;SDS011;13935;55.672;37.764;2022-08-19T06:03:21;11.40;;;7.60;;
26191;SDS011;13935;55.672;37.764;2022-08-19T06:04:23;11.48;;;7.47;;
26191;SDS011;13935;55.672;37.764;2022-08-19T06:05:29;14.05;;;7.75;;
26191;SDS011;13935;55.672;37.764;2022-08-19T06:06:47;9.25;;;6.90;;
26191;SDS011;13935;55.672;37.764;2022-08-19T06:08:00;13.82;;;7.20;;
26191;SDS011;13935;55.672;37.764;2022-08-19T06:09:04;13.07;;;7.43;;
26191;SDS011;13935;55.672;37.764;2022-08-19T06:10:09;15.77;;;7.60;;
26191;SDS011;13935;55.672;37.764;2022-08-19T06:12:18;13.40;;;7.13;;
26191;SDS011;13935;55.672;37.764;2022-08-19T06:13:21;15.90;;;7.30;;
26191;SDS011;13935;55.672;37.764;2022-08-19T06:14:25;13.20;;;7.03;;
26191;SDS011;13935;55.672;37.764;2022-08-19T06:15:32;15.63;;;7.38;;
26191;SDS011;13935;55.672;37.764;2022-08-19T06:16:35;15.55;;;7.07;;
26191;SDS011;13935;55.672;37.764;2022-08-19T06:17:41;15.80;;;7.85;;
26191;SDS011;13935;55.672;37.764;2022-08-19T06:18:46;15.25;;;7.55;;
26191;SDS011;13935;55.672;37.764;2022-08-19T06:19:48;13.95;;;7.13;;
26191;SDS011;13935;55.672;37.764;2022-08-19T06:20:52;14.50;;;6.72;;
26191;SDS011;13935;55.672;37.764;2022-08-19T06:21:57;14.27;;;7.70;;
26191;SDS011;13935;55.672;37.764;2022-08-19T06:23:02;10.65;;;6.85;;
26191;SDS011;13935;55.672;37.764;2022-08-19T06:24:06;12.40;;;7.50;;
26191;SDS011;13935;55.672;37.764;2022-08-19T06:25:11;11.45;;;7.38;;
26191;SDS011;13935;55.672;37.764;2022-08-19T06:26:15;17.05;;;7.72;;
26191;SDS011;13935;55.672;37.764;2022-08-19T06:27:18;11.70;;;7.63;;
26191;SDS011;13935;55.672;37.764;2022-08-19T06:28:21;10.07;;;7.47;;
26191;SDS011;13935;55.672;37.764;2022-08-19T06:29:25;13.50;;;7.50;;
26191;SDS011;13935;55.672;37.764;2022-08-19T06:30:29;13.15;;;7.75;;
26191;SDS011;13935;55.672;37.764;2022-08-19T06:31:31;14.82;;;7.60;;
26191;SDS011;13935;55.672;37.764;2022-08-19T06:32:35;12.10;;;8.05;;
26191;SDS011;13935;55.672;37.764;2022-08-19T06:33:44;13.05;;;7.88;;
26191;SDS011;13935;55.672;37.764;2022-08-19T06:34:46;17.48;;;8.10;;
26191;SDS011;13935;55.672;37.764;2022-08-19T06:35:49;9.95;;;7.60;;
26191;SDS011;13935;55.672;37.764;2022-08-19T06:36:51;12.57;;;7.57;;
26191;SDS011;13935;55.672;37.764;2022-08-19T06:37:53;14.07;;;7.85;;
26191;SDS011;13935;55.672;37.764;2022-08-19T06:38:58;10.55;;;7.53;;
26191;SDS011;13935;55.672;37.764;2022-08-19T06:40:00;12.80;;;8.00;;
26191;SDS011;13935;55.672;37.764;2022-08-19T06:41:03;14.38;;;7.90;;
26191;SDS011;13935;55.672;37.764;2022-08-19T06:42:09;16.05;;;8.48;;
26191;SDS011;13935;55.672;37.764;2022-08-19T06:43:14;18.13;;;8.90;;
26191;SDS011;13935;55.672;37.764;2022-08-19T06:44:20;11.60;;;8.48;;
26191;SDS011;13935;55.672;37.764;2022-08-19T06:45:26;13.90;;;8.93;;
26191;SDS011;13935;55.672;37.764;2022-08-19T06:46:39;11.60;;;7.90;;
26191;SDS011;13935;55.672;37.764;2022-08-19T06:47:43;16.90;;;8.65;;
26191;SDS011;13935;55.672;37.764;2022-08-19T06:48:49;17.33;;;8.50;;
26191;SDS011;13935;55.672;37.764;2022-08-19T06:49:53;14.13;;;8.25;;
26191;SDS011;13935;55.672;37.764;2022-08-19T06:51:04;15.70;;;8.27;;
26191;SDS011;13935;55.672;37.764;2022-08-19T06:52:09;16.90;;;8.77;;
26191;SDS011;13935;55.672;37.764;2022-08-19T06:53:15;15.43;;;8.85;;
26191;SDS011;13935;55.672;37.764;2022-08-19T06:54:25;15.20;;;8.40;;
26191;SDS011;13935;55.672;37.764;2022-08-19T06:55:31;16.95;;;8.73;;
26191;SDS011;13935;55.672;37.764;2022-08-19T06:56:34;16.55;;;8.55;;
26191;SDS011;13935;55.672;37.764;2022-08-19T06:57:36;13.90;;;8.13;;
26191;SDS011;13935;55.672;37.764;2022-08-19T06:58:38;18.55;;;8.98;;
26191;SDS011;13935;55.672;37.764;2022-08-19T06:59:41;15.55;;;8.88;;
26191;SDS011;13935;55.672;37.764;2022-08-19T07:00:43;13.93;;;8.57;;
26191;SDS011;13935;55.672;37.764;2022-08-19T07:01:50;14.30;;;8.38;;
26191;SDS011;13935;55.672;37.764;2022-08-19T07:02:54;14.77;;;9.45;;
26191;SDS011;13935;55.672;37.764;2022-08-19T07:04:01;15.43;;;8.73;;
26191;SDS011;13935;55.672;37.764;2022-08-19T07:05:04;13.35;;;8.05;;
26191;SDS011;13935;55.672;37.764;2022-08-19T07:06:08;14.07;;;8.52;;
26191;SDS011;13935;55.672;37.764;2022-08-19T07:07:33;20.08;;;8.05;;
26191;SDS011;13935;55.672;37.764;2022-08-19T07:08:36;14.00;;;7.90;;
26191;SDS011;13935;55.672;37.764;2022-08-19T07:09:41;15.93;;;8.15;;
26191;SDS011;13935;55.672;37.764;2022-08-19T07:10:55;15.05;;;8.15;;
26191;SDS011;13935;55.672;37.764;2022-08-19T07:11:58;11.05;;;7.80;;
26191;SDS011;13935;55.672;37.764;2022-08-19T07:13:00;14.48;;;8.15;;
26191;SDS011;13935;55.672;37.764;2022-08-19T07:14:03;11.95;;;7.95;;
26191;SDS011;13935;55.672;37.764;2022-08-19T07:15:05;11.82;;;8.13;;
26191;SDS011;13935;55.672;37.764;2022-08-19T07:16:12;14.93;;;8.45;;
26191;SDS011;13935;55.672;37.764;2022-08-19T07:17:21;14.38;;;8.20;;
26191;SDS011;13935;55.672;37.764;2022-08-19T07:18:23;15.98;;;7.85;;
26191;SDS011;13935;55.672;37.764;2022-08-19T07:19:28;14.88;;;8.43;;
26191;SDS011;13935;55.672;37.764;2022-08-19T07:20:30;12.70;;;8.35;;
26191;SDS011;13935;55.672;37.764;2022-08-19T07:21:37;11.63;;;7.60;;
26191;SDS011;13935;55.672;37.764;2022-08-19T07:22:39;10.48;;;7.95;;
26191;SDS011;13935;55.672;37.764;2022-08-19T07:23:42;13.90;;;7.60;;
26191;SDS011;13935;55.672;37.764;2022-08-19T07:24:45;17.42;;;8.52;;
26191;SDS011;13935;55.672;37.764;2022-08-19T07:25:52;13.10;;;8.18;;
26191;SDS011;13935;55.672;37.764;2022-08-19T07:26:56;14.30;;;7.43;;
26191;SDS011;13935;55.672;37.764;2022-08-19T07:28:02;15.93;;;8.13;;
26191;SDS011;13935;55.672;37.764;2022-08-19T07:29:05;10.65;;;7.75;;
26191;SDS011;13935;55.672;37.764;2022-08-19T07:30:08;12.57;;;7.22;;